Latest Weather Observations for Perisher Valley

IDN60901

Issued at 6:21 am EST Monday 6 April 2020 (issued every 10 minutes, with the page automatically refreshed every 10 minutes)

About weather observations | Map of Canberra area stations | Latest observations for Canberra area | Other Formats
Station Details ID: 071075 Name: PERISHER VALLEY AWS Lat: -36.41 Lon: 148.41 Height: 1738.0 m
Data from the previous 72 hours. | See also: Recent months at Perisher Valley
Date/Time
EST
Temp
°C
App
Temp
°C
Dew
Point
°C
Rel
Hum
%
Delta-T
°C
Wind Press
QNH
hPa
Press
MSL
hPa
Rain since
9am
mm
Dir  Spd
km/h
Gust
km/h
Spd
kts
Gust
kts
06/06:00am 3.8 0.3 3.7 99 0.0 W 11 22 6 12 - - 21.2
06/05:30am 4.1 -0.4 4.1 100 0.0 WNW 17 33 9 18 - - 20.6
06/05:00am 4.4 0.7 4.4 100 0.0 WSW 13 28 7 15 - - 19.8
06/04:30am 4.5 1.2 4.5 100 0.0 W 11 28 6 15 - - 19.6
06/04:00am 4.5 2.1 4.5 100 0.0 W 6 17 3 9 - - 18.8
06/03:30am 4.3 -0.2 4.3 100 0.0 WNW 17 33 9 18 - - 18.2
06/03:00am 4.5 1.6 4.5 100 0.0 WNW 9 26 5 14 - - 17.6
06/02:30am 4.2 0.8 4.2 100 0.0 WSW 11 30 6 16 - - 16.4
06/02:00am 4.3 -0.6 4.3 100 0.0 WNW 19 39 10 21 - - 15.6
06/01:30am 4.5 2.0 4.5 100 0.0 WNW 7 22 4 12 - - 14.8
06/01:00am 4.6 1.3 4.6 100 0.0 W 11 28 6 15 - - 14.4
06/12:30am 4.6 0.9 4.6 100 0.0 WSW 13 37 7 20 - - 13.6
06/12:00am 4.5 -0.5 4.5 100 0.0 W 20 46 11 25 - - 13.0
 
Date/Time
EST
Temp
°C
App
Temp
°C
Dew
Point
°C
Rel
Hum
%
Delta-T
°C
Wind Press
QNH
hPa
Press
MSL
hPa
Rain since
9am
mm
Dir  Spd
km/h
Gust
km/h
Spd
kts
Gust
kts
05/11:38pm 4.5 -2.0 4.5 100 0.0 W 28 59 15 32 - - 12.6
05/11:30pm 4.4 -1.4 4.4 100 0.0 W 24 59 13 32 - - 12.6
05/11:10pm 4.3 -2.3 4.3 100 0.0 W 28 65 15 35 - - 12.4
05/11:00pm 4.2 -1.6 4.2 100 0.0 W 24 57 13 31 - - 12.2
05/10:30pm 4.1 -2.1 4.1 100 0.0 W 26 56 14 30 - - 11.8
05/10:00pm 4.0 -5.5 4.0 100 0.0 WNW 43 74 23 40 - - 11.0
05/09:30pm 3.9 -4.8 3.9 100 0.0 WNW 39 70 21 38 - - 10.0
05/09:00pm 3.6 -6.9 3.6 100 0.0 WNW 48 76 26 41 - - 9.0
05/08:30pm 3.8 -6.7 3.8 100 0.0 WNW 48 80 26 43 - - 8.2
05/08:00pm 3.5 -5.3 3.5 100 0.0 WNW 39 78 21 42 - - 7.2
05/07:34pm 3.4 -3.3 3.4 100 0.0 WNW 28 61 15 33 - - 6.4
05/07:30pm 3.3 -2.7 3.3 100 0.0 WNW 24 57 13 31 - - 6.4
05/07:00pm 3.1 -6.6 3.1 100 0.0 WNW 43 78 23 42 - - 5.4
05/06:30pm 3.0 -6.3 3.0 100 0.0 WNW 41 69 22 37 - - 4.8
05/06:00pm 2.8 -6.5 2.8 100 0.0 WNW 41 72 22 39 - - 4.2
05/05:30pm 2.8 -8.6 2.8 100 0.0 WNW 52 78 28 42 - - 3.6
05/05:00pm 2.4 -7.4 2.4 100 0.0 WNW 43 70 23 38 - - 3.0
05/04:30pm 2.3 -8.4 2.3 100 0.0 WNW 48 78 26 42 - - 2.2
05/04:00pm 2.0 -10.3 2.0 100 0.0 WNW 56 93 30 50 - - 1.8
05/03:30pm 1.7 -10.3 1.7 100 0.0 WNW 54 83 29 45 - - 1.4
05/03:00pm 1.4 -11.0 1.4 100 0.0 W 56 95 30 51 - - 1.2
05/02:30pm 1.1 -11.0 1.1 100 0.0 W 54 82 29 44 - - 0.6
05/02:00pm 0.8 -11.7 0.8 100 0.0 W 56 93 30 50 - - 0.4
05/01:30pm 0.7 -11.8 0.7 100 0.0 WNW 56 85 30 46 - - 0.4
05/01:00pm 0.4 -12.2 0.4 100 0.0 W 56 93 30 50 - - 0.2
05/12:30pm 0.1 -11.7 0.1 100 0.0 W 52 78 28 42 - - 0.0
05/12:00pm -0.2 -11.7 -0.2 100 0.0 WNW 50 78 27 42 - - 0.0
05/11:30am -0.4 -11.2 -0.4 100 0.0 WNW 46 76 25 41 - - 0.0
05/11:00am -0.5 -11.3 -0.5 100 0.0 W 46 76 25 41 - - 0.0
05/10:30am -0.8 -12.0 -0.8 100 0.0 WNW 48 82 26 44 - - 0.0
05/10:00am -1.0 -11.9 -1.0 100 0.0 W 46 72 25 39 - - 0.0
05/09:30am -1.1 -13.1 -1.1 100 0.0 WNW 52 83 28 45 - - 0.0
05/09:00am -1.6 -14.6 -1.7 99 0.0 WNW 57 91 31 49 - - 40.6
05/08:30am -1.8 -13.5 -1.8 100 0.0 WNW 50 83 27 45 - - 40.6
05/08:07am -1.9 -11.9 -2.0 99 -0.1 W 41 82 22 44 - - 40.6
05/08:00am -1.8 -10.1 -1.8 100 0.0 W 32 61 17 33 - - 40.6
05/07:30am -1.6 -12.0 -1.6 100 0.0 W 43 72 23 39 - - 40.6
05/07:00am -1.6 -13.4 -2.7 92 0.3 W 50 74 27 40 - - 40.6
05/06:30am -1.6 -12.3 -2.3 95 0.2 W 44 72 24 39 - - 40.6
05/06:00am -1.6 -12.1 -2.2 96 0.1 WNW 43 72 23 39 - - 40.6
05/05:47am -1.3 -10.9 -1.3 100 0.0 WNW 39 67 21 36 - - 40.6
05/05:46am -1.4 -11.4 -1.4 100 0.0 WNW 41 67 22 36 - - 40.6
05/05:31am -1.3 -8.8 -1.7 97 0.1 WNW 28 48 15 26 - - 40.6
05/05:30am -1.4 -8.6 -1.8 97 0.1 WNW 26 48 14 26 - - 40.6
05/05:00am -1.0 -12.4 -2.4 90 0.5 WNW 48 76 26 41 - - 40.6
05/04:30am -1.1 -11.1 -1.8 95 0.2 WNW 41 69 22 37 - - 40.6
05/04:00am -0.8 -9.1 -1.9 92 0.4 W 32 70 17 38 - - 40.6
05/03:30am -0.8 -10.8 -1.8 93 0.3 W 41 78 22 42 - - 40.6
05/03:00am -1.1 -12.2 -3.1 86 0.7 W 46 78 25 42 - - 40.6
05/03:55am -1.1 -11.7 -3.0 87 0.7 W 43 78 23 42 - - 40.6
05/03:30am -0.7 -8.7 -2.3 89 0.6 W 30 57 16 31 - - 40.6
05/03:16am -0.8 -8.5 -2.7 87 0.7 W 28 57 15 31 - - 40.6
05/03:00am -0.6 -7.4 -2.0 90 0.5 W 24 61 13 33 - - 40.6
05/02:30am -0.3 -8.2 -1.6 91 0.5 W 30 61 16 33 - - 40.6
05/02:00am -0.2 -11.1 -1.2 93 0.4 W 46 72 25 39 - - 40.4
05/01:30am -0.3 -10.8 -1.4 92 0.4 W 44 76 24 41 - - 40.4
05/01:00am 0.2 -10.2 -0.5 95 0.3 W 44 78 24 42 - - 40.4
05/12:30am 0.2 -11.4 -0.5 95 0.3 WNW 50 78 27 42 - - 40.2
05/12:00am 0.3 -11.6 -0.3 96 0.2 WNW 52 98 28 53 - - 40.2
 
Date/Time
EST
Temp
°C
App
Temp
°C
Dew
Point
°C
Rel
Hum
%
Delta-T
°C
Wind Press
QNH
hPa
Press
MSL
hPa
Rain since
9am
mm
Dir  Spd
km/h
Gust
km/h
Spd
kts
Gust
kts
04/11:51pm 0.4 -10.0 -0.2 96 0.2 W 44 98 24 53 - - 40.2
04/11:30pm 0.6 -9.1 0.5 99 0.0 WNW 41 78 22 42 - - 40.0
04/11:00pm 0.4 -10.3 0.4 100 0.0 WNW 46 76 25 41 - - 38.8
04/10:30pm 0.4 -9.4 0.1 98 0.1 W 41 74 22 40 - - 38.8
04/10:00pm 0.2 -8.8 0.2 100 0.0 W 37 61 20 33 - - 38.8
04/09:30pm 0.1 -7.2 0.1 100 0.0 W 28 65 15 35 - - 38.8
04/09:13pm 0.1 -6.4 0.1 100 0.0 W 24 57 13 31 - - 38.8
04/09:00pm 0.2 -6.3 0.1 99 0.0 W 24 59 13 32 - - 38.8
04/08:38pm 0.5 -6.8 0.1 97 0.2 WNW 28 59 15 32 - - 37.0
04/08:30pm 0.6 -6.3 0.2 97 0.2 WNW 26 61 14 33 - - 36.4
04/08:00pm 0.8 -6.1 0.4 97 0.2 WNW 26 65 14 35 - - 34.0
04/07:39pm 1.0 -6.3 0.3 95 0.3 W 28 54 15 29 - - 32.0
04/07:30pm 1.3 -5.2 0.0 91 0.5 WNW 24 48 13 26 - - 31.4
04/07:00pm 1.3 -6.8 0.7 96 0.3 W 33 61 18 33 - - 31.2
04/06:30pm 1.3 -7.2 0.7 96 0.3 WNW 35 69 19 37 - - 31.0
04/06:00pm 1.5 -7.0 0.6 94 0.4 WNW 35 67 19 36 - - 30.8
04/05:32pm 1.4 -5.7 1.3 99 0.0 W 28 57 15 31 - - 29.8
04/05:30pm 1.4 -5.4 1.1 98 0.1 W 26 57 14 31 - - 29.8
04/05:00pm 1.7 -5.3 1.7 100 0.0 W 28 56 15 30 - - 26.8
04/04:31pm 1.5 -5.6 1.1 97 0.2 W 28 57 15 31 - - 26.0
04/04:30pm 1.4 -5.0 1.0 97 0.2 W 24 54 13 29 - - 26.0
04/04:00pm 1.9 -6.0 0.9 93 0.4 W 32 63 17 34 - - 21.2
04/03:33pm 2.9 -4.1 2.2 95 0.3 W 28 63 15 34 - - 20.4
04/03:30pm 2.8 -3.0 2.5 98 0.1 W 22 63 12 34 - - 20.4
04/03:02pm 2.9 -4.0 2.5 97 0.2 W 28 65 15 35 - - 20.0
04/03:00pm 2.7 -3.9 2.1 96 0.3 W 26 65 14 35 - - 20.0
04/02:30pm 1.9 -3.5 1.3 96 0.3 WNW 19 37 10 20 - - 19.2
04/02:00pm 2.6 -7.1 0.8 88 0.8 WNW 41 65 22 35 - - 18.6
04/01:40pm 1.8 -5.3 1.4 97 0.2 WNW 28 65 15 35 - - 18.4
04/01:30pm 2.1 -4.2 1.7 97 0.2 W 24 52 13 28 - - 17.8
04/01:00pm 2.0 -7.9 1.7 98 0.1 WNW 43 70 23 38 - - 17.0
04/12:30pm 1.6 -6.4 0.4 92 0.5 WNW 32 69 17 37 - - 15.0
04/12:11pm 2.5 -4.5 2.1 97 0.2 W 28 82 15 44 - - 11.4
04/12:00pm 2.5 -4.1 1.9 96 0.3 W 26 67 14 36 - - 10.0
04/11:30am 3.3 -4.0 2.7 96 0.3 W 30 72 16 39 - - 7.2
04/11:11am 3.2 -2.0 2.5 95 0.3 NW 19 54 10 29 - - 6.0
04/11:00am 4.0 -1.6 3.7 98 0.1 W 22 52 12 28 - - 4.8
04/10:30am 4.6 -1.3 4.0 96 0.3 W 24 67 13 36 - - 3.4
04/10:01am 5.0 -1.5 4.9 99 0.0 W 28 57 15 31 - - 1.0
04/10:00am 5.0 -1.1 4.9 99 0.0 W 26 50 14 27 - - 1.0
04/09:30am 5.2 -1.2 5.2 100 0.0 W 28 63 15 34 - - 1.0
04/09:00am 5.3 -3.2 5.3 100 0.0 W 39 65 21 35 - - 6.0
04/08:30am 5.8 -1.2 5.8 100 0.0 WNW 32 54 17 29 - - 6.0
04/08:05am 6.1 -0.1 6.1 100 0.0 WNW 28 56 15 30 - - 5.8
04/08:00am 6.3 0.9 6.3 100 0.0 WNW 24 48 13 26 - - 5.4
04/07:30am 7.0 -1.0 5.8 92 0.6 WNW 37 78 20 42 - - 5.2
04/07:23am 7.1 0.2 6.4 95 0.4 WNW 32 78 17 42 - - 5.0
04/07:01am 7.7 1.8 7.6 99 0.1 W 28 57 15 31 - - 3.2
04/07:00am 7.7 2.2 7.6 99 0.1 W 26 57 14 31 - - 3.2
04/06:30am 7.4 3.5 7.3 99 0.1 W 17 44 9 24 - - 1.2
04/06:00am 7.6 4.1 7.0 96 0.3 W 15 48 8 26 - - 0.6
04/05:30am 7.8 1.1 7.2 96 0.3 W 32 57 17 31 - - 0.4
04/05:00am 8.3 2.2 6.8 90 0.8 W 28 61 15 33 - - 0.2
04/04:30am 8.5 4.0 7.0 90 0.8 WNW 20 56 11 30 - - 0.2
04/04:00am 8.4 5.9 8.0 97 0.2 W 11 28 6 15 - - 0.2
04/03:30am 8.2 5.6 7.6 96 0.3 NW 11 28 6 15 - - 0.2
04/03:00am 7.9 5.1 7.0 94 0.5 WNW 11 33 6 18 - - 0.2
04/02:30am 7.7 5.2 6.6 93 0.6 NW 9 28 5 15 - - 0.0
04/02:00am 8.4 5.5 6.5 88 1.0 NNW 11 30 6 16 - - 0.0
04/01:30am 8.5 5.5 6.1 85 1.2 NW 11 26 6 14 - - 0.0
04/01:00am 8.2 5.6 6.2 87 1.0 W 9 20 5 11 - - 0.0
04/12:30am 8.1 5.8 5.6 84 1.3 WNW 7 24 4 13 - - 0.0
04/12:00am 8.4 6.1 5.9 84 1.3 NNW 7 22 4 12 - - 0.0
 
Date/Time
EST
Temp
°C
App
Temp
°C
Dew
Point
°C
Rel
Hum
%
Delta-T
°C
Wind Press
QNH
hPa
Press
MSL
hPa
Rain since
9am
mm
Dir  Spd
km/h
Gust
km/h
Spd
kts
Gust
kts
03/11:30pm 7.6 5.7 4.9 83 1.3 NNW 4 11 2 6 - - 0.0
03/11:00pm 7.8 5.5 4.6 80 1.6 NNE 6 11 3 6 - - 0.0
03/10:30pm 8.0 5.5 4.0 76 1.9 NNE 6 11 3 6 - - 0.0
03/10:00pm 8.4 5.0 4.0 74 2.1 NE 11 22 6 12 - - 0.0
03/09:30pm 9.0 6.4 3.4 68 2.7 NNE 6 11 3 6 - - 0.0
03/09:00pm 8.8 6.5 2.6 65 2.9 NW 4 11 2 6 - - 0.0
03/08:30pm 8.8 5.3 1.5 60 3.3 NW 9 15 5 8 - - 0.0
03/08:00pm 8.5 5.5 1.9 63 3.0 NW 7 17 4 9 - - 0.0
03/07:30pm 8.0 4.9 1.2 62 3.1 NW 7 13 4 7 - - 0.0
03/07:00pm 7.2 4.9 2.7 73 2.1 WSW 4 9 2 5 - - 0.0
03/06:30pm 7.3 5.4 4.8 84 1.2 WSW 4 9 2 5 - - 0.0
03/06:00pm 7.4 5.1 4.9 84 1.2 NE 6 7 3 4 - - 0.0
03/05:30pm 7.2 5.4 5.3 88 0.9 ENE 4 7 2 4 - - 0.0
03/05:00pm 8.0 4.7 2.7 69 2.5 N 9 20 5 11 - - 0.0
03/04:30pm 7.8 3.5 3.1 72 2.2 NNW 15 33 8 18 - - 0.0
03/04:00pm 7.7 4.8 4.8 82 1.4 NNW 9 22 5 12 - - 0.0
03/03:30pm 7.7 3.9 4.1 78 1.7 NNW 13 28 7 15 - - 0.0
03/03:00pm 8.3 5.0 2.5 67 2.7 WNW 9 26 5 14 - - 0.0
03/02:30pm 8.3 4.1 1.7 63 3.0 W 13 24 7 13 - - 0.0
03/02:00pm 8.8 2.7 0.3 55 3.8 W 22 33 12 18 - - 0.0
03/01:30pm 9.4 3.6 -1.3 47 4.6 W 19 28 10 15 - - 0.0
03/01:00pm 9.5 5.1 0.1 52 4.2 WNW 13 24 7 13 - - 0.0
03/12:30pm 10.5 7.8 0.5 50 4.6 W 4 11 2 6 - - 0.0
03/12:00pm 9.4 4.2 0.1 52 4.2 WSW 17 33 9 18 - - 0.0
03/11:30am 9.8 5.8 0.4 52 4.2 W 11 24 6 13 - - 0.0
03/11:00am 9.5 3.9 -0.1 51 4.3 W 19 33 10 18 - - 0.0
03/10:30am 9.2 2.3 0.1 53 4.1 W 26 44 14 24 - - 0.0
03/10:00am 7.7 0.3 2.0 67 2.6 W 30 56 16 30 - - 0.0
03/09:33am 7.7 0.7 1.8 66 2.7 W 28 50 15 27 - - 0.0
03/09:30am 8.0 1.6 1.0 61 3.2 W 24 50 13 27 - - 0.0
03/09:00am 6.9 1.6 2.8 75 1.9 W 20 43 11 23 - - 30.6
03/08:30am 7.8 2.7 1.0 62 3.1 W 17 33 9 18 - - 30.6
03/08:00am 7.6 3.4 1.7 66 2.7 W 13 39 7 21 - - 30.6
03/07:30am 6.3 1.9 2.9 79 1.6 W 15 32 8 17 - - 30.6

Latest Capital City Observations: Canberra | Sydney | Melbourne | Brisbane | Adelaide | Perth | Hobart | Darwin

Other formats

Comma delimited format used in spreadsheet applications
http://www.bom.gov.au/fwo/IDN60903/IDN60903.94915.axf

JavaScript Object Notation format (JSON) in row-major order
http://www.bom.gov.au/fwo/IDN60903/IDN60903.94915.json

Data quality

Most of these data are generated automatically and are frequently updated. Quality checks on data are not normally performed. It is possible for incorrect values to appear. Refer to information at About Latest Weather Observations and please check the disclaimer before using these data.